createdAt,value
2017-02-06T07:14:21.833Z,71.09
2017-02-06T07:15:31.242Z,71.47
2017-02-06T07:16:40.329Z,71.37
2017-02-06T07:17:49.323Z,70.32
2017-02-06T07:18:58.720Z,70.32
2017-02-06T07:20:07.712Z,68.59
2017-02-06T07:21:16.707Z,70.32
2017-02-06T07:22:26.117Z,70.13
2017-02-06T07:23:35.095Z,70.32
2017-02-06T07:24:44.163Z,69.07
2017-02-06T07:25:53.149Z,69.36
2017-02-06T07:27:02.315Z,69.93
2017-02-06T07:28:11.937Z,69.56
2017-02-06T07:29:20.919Z,69.46
2017-02-06T07:30:29.910Z,68.79
2017-02-06T07:31:38.890Z,68.98
2017-02-06T07:32:47.878Z,69.07
2017-02-06T07:33:57.290Z,69.56
2017-02-06T07:35:06.263Z,70.23
2017-02-06T07:36:15.336Z,69.65
2017-02-06T07:37:24.323Z,70.42
2017-02-06T07:38:33.310Z,70.36
2017-02-06T07:39:42.312Z,70.84
2017-02-06T07:40:51.346Z,70.36
2017-02-06T07:42:00.513Z,70.26
2017-02-06T07:43:09.716Z,70.36
2017-02-06T07:44:18.926Z,69.87
2017-02-06T07:45:28.015Z,69.78
2017-02-06T07:46:37.759Z,71.22
2017-02-06T07:47:46.741Z,70.55
2017-02-06T07:48:55.731Z,70.17
2017-02-06T07:50:04.729Z,70.26
2017-02-06T07:51:13.721Z,69.97
2017-02-06T07:52:22.699Z,69.68
2017-02-06T07:53:31.672Z,69.53
2017-02-06T07:54:40.658Z,69.24
2017-02-06T07:55:49.643Z,67.54
2017-02-06T07:56:58.632Z,66.33
2017-02-06T07:58:07.684Z,67.29
2017-02-06T07:59:17.076Z,67.13
2017-02-06T08:00:26.066Z,66.74
2017-02-06T08:01:35.043Z,66.68
2017-02-06T08:02:44.029Z,66.1
2017-02-06T08:03:53.009Z,66.39
2017-02-06T08:05:02.006Z,66.24
2017-02-06T08:06:10.979Z,66.14
2017-02-06T08:07:19.965Z,65.56
2017-02-06T08:08:29.372Z,65.27
2017-02-06T08:09:38.354Z,65.27
2017-02-06T08:10:47.341Z,65.66
2017-02-06T08:11:56.771Z,65.37
2017-02-06T08:13:06.168Z,65.46
2017-02-06T08:14:15.144Z,65.37
2017-02-06T08:15:24.532Z,64.95
2017-02-06T08:16:34.109Z,64.86
2017-02-06T08:17:43.159Z,64.76
2017-02-06T08:18:52.623Z,64.59
2017-02-06T08:20:01.673Z,64.4
2017-02-06T08:21:10.654Z,64.79
2017-02-06T08:22:19.868Z,64.15
2017-02-06T08:23:29.282Z,64.4
2017-02-06T08:24:38.270Z,64.53
2017-02-06T08:25:47.662Z,63.76
2017-02-06T08:26:56.651Z,63.95
2017-02-06T08:28:05.646Z,64.28
2017-02-06T08:29:14.634Z,63.7
2017-02-06T08:30:24.046Z,64.08
2017-02-06T08:31:33.032Z,64.18
2017-02-06T08:32:42.021Z,63.4
2017-02-06T08:33:51.151Z,63.5
2017-02-06T08:35:00.592Z,63.31
2017-02-06T08:36:09.576Z,63.6
2017-02-06T08:37:18.563Z,62.86
2017-02-06T08:38:27.552Z,61.6
2017-02-06T08:39:36.547Z,61.99
2017-02-06T08:40:45.533Z,62.54
2017-02-06T08:41:54.525Z,62.37
2017-02-06T08:43:03.509Z,63.31
2017-02-06T08:44:12.503Z,63.21
2017-02-06T08:45:21.484Z,64.92
2017-02-06T08:46:30.480Z,64.79
2017-02-06T08:47:39.467Z,65.37
2017-02-06T08:48:48.442Z,65.47
2017-02-06T08:49:57.437Z,64.89
2017-02-06T08:51:06.462Z,65.08
2017-02-06T08:52:15.443Z,65.08
2017-02-06T08:53:24.438Z,64.76
2017-02-06T08:54:33.426Z,64.76
2017-02-06T08:55:42.424Z,65.53
2017-02-06T08:56:51.669Z,67.07
2017-02-06T08:58:00.663Z,67.07
2017-02-06T08:59:09.634Z,66.3
2017-02-06T09:00:18.628Z,66.49
2017-02-06T09:01:27.610Z,66.39
2017-02-06T09:02:36.945Z,65.63
2017-02-06T09:03:45.939Z,66.3
2017-02-06T09:04:54.927Z,66.11
2017-02-06T09:06:03.983Z,65.91
2017-02-06T09:07:13.508Z,65.53
2017-02-06T09:08:22.503Z,65.63
2017-02-06T09:09:31.487Z,65.81
2017-02-06T09:10:40.893Z,65.63
2017-02-06T09:11:49.869Z,65.72
2017-02-06T09:12:59.304Z,65.72
2017-02-06T09:14:08.289Z,65.63
2017-02-06T09:15:17.279Z,66.01
2017-02-06T09:16:26.266Z,65.43
2017-02-06T09:17:35.676Z,65.43
2017-02-06T09:18:44.656Z,65.33
2017-02-06T09:19:54.068Z,64.28
2017-02-06T09:21:03.057Z,64.76
2017-02-06T09:22:12.030Z,66.3
2017-02-06T09:23:21.034Z,65.72
2017-02-06T09:24:30.022Z,65.53
2017-02-06T09:25:39.066Z,64.56
2017-02-06T09:26:48.045Z,64.37
2017-02-06T09:27:57.046Z,64.92
2017-02-06T09:29:06.043Z,64.82
2017-02-06T09:30:15.039Z,65.01
2017-02-06T09:31:24.025Z,65.2
2017-02-06T09:32:33.014Z,68.38
2017-02-06T09:33:42.417Z,66.59
2017-02-06T09:34:51.404Z,61.38
2017-02-06T09:36:01.235Z,50.85
2017-02-06T09:37:10.224Z,49.07
2017-02-06T09:38:19.212Z,49.88
2017-02-06T09:39:28.191Z,52.23
2017-02-06T09:40:37.179Z,57.6
2017-02-06T09:41:46.177Z,61.11
2017-02-06T09:42:55.568Z,61.36
2017-02-06T09:44:04.552Z,61.4
2017-02-06T09:45:13.533Z,61.61
2017-02-06T09:46:22.508Z,62.38
2017-02-06T09:47:31.493Z,62.51
2017-02-06T09:48:40.480Z,62.51
2017-02-06T09:49:49.463Z,63.09
2017-02-06T09:50:58.440Z,63.02
2017-02-06T09:52:07.436Z,62.9
2017-02-06T09:53:16.829Z,62.83
2017-02-06T09:54:25.826Z,62.93
2017-02-06T09:55:34.811Z,63.02
2017-02-06T09:56:43.785Z,62.83
2017-02-06T09:57:53.203Z,62.93
2017-02-06T09:59:02.194Z,62.99
2017-02-06T10:00:11.180Z,63.48
2017-02-06T10:01:20.156Z,63.6
2017-02-06T10:02:29.142Z,63.31
2017-02-06T10:03:38.128Z,63.31
2017-02-06T10:04:47.114Z,63.22
2017-02-06T10:05:56.108Z,63.31
2017-02-06T10:07:05.084Z,63.51
2017-02-06T10:08:14.073Z,63.31
2017-02-06T10:09:23.053Z,63.6
2017-02-06T10:10:32.045Z,63.31
2017-02-06T10:11:41.029Z,63.31
2017-02-06T10:12:50.021Z,63.22
2017-02-06T10:13:59.014Z,63.12
2017-02-06T10:15:07.999Z,63.02
2017-02-06T10:16:16.994Z,63.31
2017-02-06T10:17:25.967Z,63.22
2017-02-06T10:18:34.949Z,63.31
2017-02-06T10:19:44.351Z,63.41
2017-02-06T10:20:53.391Z,63.31
2017-02-06T10:22:02.365Z,63.22
2017-02-06T10:23:11.363Z,63.02
2017-02-06T10:24:20.341Z,63.22
2017-02-06T10:25:29.327Z,63.31
2017-02-06T10:26:38.315Z,63.02
2017-02-06T10:27:47.313Z,63.6
2017-02-06T10:28:56.297Z,63.31
2017-02-06T10:30:05.694Z,63.31
2017-02-06T10:31:14.678Z,63.22
2017-02-06T10:32:23.660Z,63.22
2017-02-06T10:33:32.648Z,63.02
2017-02-06T10:34:41.636Z,63.31
2017-02-06T10:35:50.662Z,63.7
2017-02-06T10:36:59.656Z,63.79
2017-02-06T10:38:08.644Z,63.7
2017-02-06T10:39:17.660Z,63.6
2017-02-06T10:40:27.063Z,63.79
2017-02-06T10:41:36.058Z,63.7
2017-02-06T10:42:45.048Z,63.51
2017-02-06T10:43:54.031Z,63.89
2017-02-06T10:45:03.431Z,63.6
2017-02-06T10:46:12.410Z,63.51
2017-02-06T10:47:21.404Z,63.79
2017-02-06T10:48:30.392Z,63.7
2017-02-06T10:49:39.388Z,63.51
2017-02-06T10:50:48.366Z,63.79
2017-02-06T10:51:57.363Z,63.7
2017-02-06T10:53:06.342Z,63.79
2017-02-06T10:54:15.332Z,63.79
2017-02-06T10:55:24.323Z,63.51
2017-02-06T10:56:33.299Z,63.79
2017-02-06T10:57:42.333Z,63.89
2017-02-06T10:58:51.319Z,63.79
2017-02-06T11:00:00.295Z,63.79
2017-02-06T11:01:09.296Z,63.6
2017-02-06T11:02:18.282Z,63.79
2017-02-06T11:03:27.270Z,63.89
2017-02-06T11:04:36.245Z,63.51
2017-02-06T11:05:45.253Z,63.7
2017-02-06T11:06:54.228Z,63.51
2017-02-06T11:08:03.231Z,63.7
2017-02-06T11:09:12.218Z,63.82
2017-02-06T11:10:21.627Z,63.41
2017-02-06T11:11:30.614Z,63.7
2017-02-06T11:12:39.606Z,63.89
2017-02-06T11:13:48.582Z,63.79
2017-02-06T11:14:57.584Z,63.79
2017-02-06T11:16:06.574Z,63.89
2017-02-06T11:17:15.579Z,64.47
2017-02-06T11:18:24.976Z,64.31
2017-02-06T11:19:33.964Z,63.79
2017-02-06T11:20:42.952Z,63.79
2017-02-06T11:21:51.946Z,64.5
2017-02-06T11:23:00.945Z,64.21
2017-02-06T11:24:09.919Z,63.82
2017-02-06T11:25:18.900Z,64.02
2017-02-06T11:26:27.898Z,64.5
2017-02-06T11:27:37.300Z,63.79
2017-02-06T11:28:46.274Z,63.73
2017-02-06T11:29:55.261Z,63.7
2017-02-06T11:31:04.661Z,63.82
2017-02-06T11:32:13.641Z,64.02
2017-02-06T11:33:22.632Z,64.12
2017-02-06T11:34:31.625Z,63.73
2017-02-06T11:35:40.610Z,64.47
2017-02-06T11:36:49.596Z,64.5
2017-02-06T11:37:58.572Z,64.12
2017-02-06T11:39:07.565Z,64.4
2017-02-06T11:40:16.559Z,64.37
2017-02-06T11:41:25.554Z,64.5
2017-02-06T11:42:34.536Z,64.5
2017-02-06T11:43:43.527Z,64.21
2017-02-06T11:44:52.516Z,64.47
2017-02-06T11:46:01.500Z,64.5
2017-02-06T11:47:10.499Z,64.47
2017-02-06T11:48:19.482Z,64.31
2017-02-06T11:49:28.459Z,64.4
2017-02-06T11:50:37.449Z,64.5
2017-02-06T11:51:46.431Z,64.5
2017-02-06T11:52:55.458Z,64.31
2017-02-06T11:54:04.444Z,64.02
2017-02-06T11:55:13.432Z,64.4
2017-02-06T11:56:22.422Z,64.5
2017-02-06T11:57:31.812Z,64.59
2017-02-06T11:58:40.793Z,64.5
2017-02-06T11:59:49.776Z,64.02
2017-02-06T12:00:58.769Z,64.31
2017-02-06T12:02:07.749Z,64.59
2017-02-06T12:03:16.742Z,64.21
2017-02-06T12:04:25.729Z,64.59
2017-02-06T12:05:34.717Z,64.4
2017-02-06T12:06:43.698Z,64.21
2017-02-06T12:07:52.679Z,64.69
2017-02-06T12:09:01.668Z,64.4
2017-02-06T12:10:11.066Z,64.5
2017-02-06T12:11:20.456Z,64.5
2017-02-06T12:12:29.442Z,64.5
2017-02-06T12:13:38.417Z,64.59
2017-02-06T12:14:47.402Z,64.31
2017-02-06T12:15:56.400Z,64.69
2017-02-06T12:17:05.392Z,64.5
2017-02-06T12:18:14.385Z,64.5
2017-02-06T12:19:23.365Z,64.31
2017-02-06T12:20:32.358Z,64.5
2017-02-06T12:21:41.340Z,64.31
2017-02-06T12:22:50.335Z,64.59
2017-02-06T12:23:59.317Z,64.5
2017-02-06T12:25:08.316Z,64.5
2017-02-06T12:26:17.318Z,64.4
2017-02-06T12:27:26.302Z,64.21
2017-02-06T12:28:35.295Z,64.31
2017-02-06T12:29:44.287Z,64.12
2017-02-06T12:30:53.272Z,64.5
2017-02-06T12:32:02.256Z,64.21
2017-02-06T12:33:11.242Z,64.5
2017-02-06T12:34:20.233Z,64.4
2017-02-06T12:35:29.218Z,64.31
2017-02-06T12:36:38.214Z,64.21
2017-02-06T12:37:47.202Z,64.31
2017-02-06T12:38:56.182Z,64.31
2017-02-06T12:40:05.582Z,64.21
2017-02-06T12:41:14.572Z,64.21
2017-02-06T12:42:23.552Z,64.5
2017-02-06T12:43:32.536Z,64.59
2017-02-06T12:44:41.516Z,64.21
2017-02-06T12:45:50.497Z,64.21
2017-02-06T12:46:59.488Z,64.31
2017-02-06T12:48:08.485Z,64.31
2017-02-06T12:49:17.468Z,64.21
2017-02-06T12:50:26.460Z,64.31
2017-02-06T12:51:35.441Z,64.31
2017-02-06T12:52:47.120Z,64.59
2017-02-06T12:53:56.132Z,64.5
2017-02-06T12:55:05.113Z,64.59
2017-02-06T12:56:14.104Z,64.4
2017-02-06T12:57:23.089Z,64.5
2017-02-06T12:58:32.078Z,64.5
2017-02-06T12:59:41.065Z,64.59
2017-02-06T13:00:50.056Z,64.4
2017-02-06T13:01:59.044Z,64.21
2017-02-06T13:03:08.435Z,64.31
2017-02-06T13:04:17.845Z,64.21
2017-02-06T13:05:26.871Z,63.73
2017-02-06T13:06:35.867Z,64.21
2017-02-06T13:07:45.267Z,63.92
2017-02-06T13:08:54.248Z,63.92
2017-02-06T13:10:03.229Z,64.59
2017-02-06T13:11:12.230Z,64.5
2017-02-06T13:12:21.229Z,64.5
2017-02-06T13:13:30.227Z,64.59
2017-02-06T13:14:39.201Z,64.5
2017-02-06T13:15:48.195Z,64.21
2017-02-06T13:16:57.602Z,64.59
2017-02-06T13:18:06.601Z,64.69
2017-02-06T13:19:15.995Z,64.21
2017-02-06T13:20:25.410Z,63.73
2017-02-06T13:21:34.391Z,64.5
2017-02-06T13:22:43.370Z,64.31
2017-02-06T13:23:52.363Z,64.59
2017-02-06T13:25:01.358Z,64.5
2017-02-06T13:26:10.341Z,64.4
2017-02-06T13:27:19.750Z,64.5
2017-02-06T13:28:28.731Z,64.4
2017-02-06T13:29:37.719Z,64.59
2017-02-06T13:30:47.116Z,64.5
2017-02-06T13:31:56.104Z,64.5
2017-02-06T13:33:05.088Z,64.5
2017-02-06T13:34:14.085Z,64.5
2017-02-06T13:35:23.072Z,64.69
2017-02-06T13:36:32.099Z,64.31
2017-02-06T13:37:41.095Z,64.5
2017-02-06T13:38:50.082Z,64.31
2017-02-06T13:39:59.478Z,64.21
2017-02-06T13:41:08.893Z,64.4
2017-02-06T13:42:17.876Z,64.21
2017-02-06T13:43:26.869Z,63.73
2017-02-06T13:44:35.855Z,64.02
2017-02-06T13:45:45.265Z,64.31
2017-02-06T13:46:54.653Z,63.92
2017-02-06T13:48:03.651Z,63.73
2017-02-06T13:49:12.640Z,63.92
2017-02-06T13:50:21.627Z,63.92
2017-02-06T13:51:30.635Z,64.21
2017-02-06T13:52:39.625Z,64.21
2017-02-06T13:53:48.615Z,63.73
2017-02-06T13:54:57.604Z,64.63
2017-02-06T13:56:06.598Z,64.4
2017-02-06T13:57:15.584Z,64.34
2017-02-06T13:58:24.579Z,64.31
2017-02-06T13:59:33.581Z,64.02
2017-02-06T14:00:42.601Z,64.02
2017-02-06T14:01:51.598Z,63.82
2017-02-06T14:03:00.576Z,63.92
2017-02-06T14:04:09.564Z,64.02
2017-02-06T14:05:18.958Z,63.92
2017-02-06T14:06:27.934Z,63.64
2017-02-06T14:07:36.967Z,63.54
2017-02-06T14:08:45.962Z,63.54
2017-02-06T14:09:54.944Z,63.73
2017-02-06T14:11:03.936Z,64.12
2017-02-06T14:12:12.920Z,63.64
2017-02-06T14:13:21.915Z,63.54
2017-02-06T14:14:30.904Z,63.54
2017-02-06T14:15:39.887Z,63.64
2017-02-06T14:16:48.875Z,63.54
2017-02-06T14:17:57.858Z,63.92
2017-02-06T14:19:06.846Z,63.54
2017-02-06T14:20:15.831Z,63.54
2017-02-06T14:21:24.810Z,63.64
2017-02-06T14:22:33.795Z,63.54
2017-02-06T14:23:42.797Z,63.54
2017-02-06T14:24:51.783Z,63.82
2017-02-06T14:26:00.771Z,64.25
2017-02-06T14:27:09.770Z,63.64
2017-02-06T14:28:18.752Z,63.54
2017-02-06T14:29:27.729Z,63.92
2017-02-06T14:30:36.719Z,63.54
2017-02-06T14:31:45.698Z,63.92
2017-02-06T14:32:54.688Z,63.73
2017-02-06T14:34:03.706Z,64.69
2017-02-06T14:35:13.109Z,64.89
2017-02-06T14:36:22.101Z,64.79
2017-02-06T14:37:31.501Z,64.69
2017-02-06T14:38:40.928Z,64.5
2017-02-06T14:39:50.735Z,64.4
2017-02-06T14:41:00.647Z,65.01
2017-02-06T14:42:09.633Z,65.27
2017-02-06T14:43:18.659Z,65.2
2017-02-06T14:44:27.673Z,65.46
2017-02-06T14:45:36.665Z,64.79
2017-02-06T14:46:45.658Z,64.69
2017-02-06T14:47:54.647Z,64.4
2017-02-06T14:49:03.628Z,64.21
2017-02-06T14:50:12.611Z,64.25
2017-02-06T14:51:21.612Z,64.5
2017-02-06T14:52:30.600Z,64.21
2017-02-06T14:53:39.576Z,64.59
2017-02-06T14:54:48.577Z,64.59
2017-02-06T14:55:57.563Z,64.89
2017-02-06T14:57:06.563Z,64.89
2017-02-06T14:58:15.603Z,65.08
2017-02-06T14:59:25.583Z,65.17
2017-02-06T15:00:34.721Z,65.2
2017-02-06T15:01:44.055Z,64.98
2017-02-06T15:02:53.294Z,64.5
2017-02-06T15:04:02.477Z,65.2
2017-02-06T15:05:11.657Z,64.98
2017-02-06T15:06:20.883Z,64.73
2017-02-06T15:07:29.960Z,64.73
2017-02-06T15:08:38.951Z,64.73
2017-02-06T15:09:47.932Z,65.78
2017-02-06T15:10:57.329Z,65.78
2017-02-06T15:12:06.314Z,65.98
2017-02-06T15:13:15.357Z,65.69
2017-02-06T15:14:24.760Z,66.17
2017-02-06T15:15:33.755Z,65.59
2017-02-06T15:16:42.768Z,66.36
2017-02-06T15:17:51.755Z,65.78
2017-02-06T15:19:00.736Z,65.59
2017-02-06T15:20:09.735Z,65.4
2017-02-06T15:21:18.725Z,65.98
2017-02-06T15:22:27.719Z,65.69
2017-02-06T15:23:36.716Z,65.5
2017-02-06T15:24:45.704Z,65.2
2017-02-06T15:25:54.695Z,65.78
2017-02-06T15:27:03.679Z,65.88
2017-02-06T15:28:12.675Z,65.59
2017-02-06T15:29:22.084Z,65.5
2017-02-06T15:30:31.504Z,65.2
2017-02-06T15:31:40.494Z,65.01
2017-02-06T15:32:49.488Z,65.2
2017-02-06T15:33:58.476Z,65.4
2017-02-06T15:35:07.461Z,65.11
2017-02-06T15:36:16.443Z,64.89
2017-02-06T15:37:25.480Z,65.69
2017-02-06T15:38:35.072Z,65.5
2017-02-06T15:39:44.290Z,65.69
2017-02-06T15:40:53.309Z,65.2
2017-02-06T15:42:02.479Z,65.01
2017-02-06T15:43:13.088Z,64.73
2017-02-06T15:44:22.079Z,64.63
2017-02-06T15:45:31.153Z,64.73
2017-02-06T15:46:40.582Z,65.01
2017-02-06T15:47:49.624Z,65.5
2017-02-06T15:48:58.770Z,65.4
2017-02-06T15:50:08.058Z,65.5
2017-02-06T15:51:17.172Z,65.69
2017-02-06T15:52:26.203Z,65.5
2017-02-06T15:53:35.365Z,65.69
2017-02-06T15:54:45.110Z,65.4
2017-02-06T15:55:55.444Z,65.59
2017-02-06T15:57:04.445Z,65.69
2017-02-06T15:58:13.593Z,66.27
2017-02-06T15:59:22.598Z,65.69
2017-02-06T16:00:34.813Z,65.88
2017-02-06T16:01:43.794Z,66.27
2017-02-06T16:02:52.945Z,66.07
2017-02-06T16:04:02.388Z,66.07
2017-02-06T16:05:11.376Z,65.98
2017-02-06T16:06:20.359Z,66.27
2017-02-06T16:07:29.375Z,66.17
2017-02-06T16:08:40.487Z,66.36
2017-02-06T16:09:49.671Z,65.98
2017-02-06T16:10:58.670Z,66.07
2017-02-06T16:12:07.673Z,66.17
2017-02-06T16:13:17.075Z,65.98
2017-02-06T16:14:26.061Z,65.98
2017-02-06T16:15:35.480Z,66.55
2017-02-06T16:16:44.476Z,66.27
2017-02-06T16:17:53.473Z,66.17
2017-02-06T16:19:02.459Z,66.07
2017-02-06T16:20:11.433Z,66.46
2017-02-06T16:21:20.426Z,65.98
2017-02-06T16:22:29.408Z,66.46
2017-02-06T16:23:38.404Z,66.17
2017-02-06T16:24:47.387Z,66.17
2017-02-06T16:25:56.365Z,65.98
2017-02-06T16:27:05.346Z,66.27
2017-02-06T16:28:14.347Z,66.27
2017-02-06T16:29:23.750Z,66.36
2017-02-06T16:30:32.734Z,66.17
2017-02-06T16:31:41.721Z,66.46
2017-02-06T16:32:50.695Z,65.98
2017-02-06T16:33:59.682Z,66.36
2017-02-06T16:35:08.675Z,66.27
2017-02-06T16:36:53.063Z,66.55
2017-02-06T16:38:58.282Z,66.17
